Time;durP1;ratioP1;P1;durP2;ratioP2;P2;SDS_P1;SDS_P2;PMS_P1;PMS_P2;Temp;Humidity;BMP_temperature;BMP_pressure;BME280_temperature;BME280_humidity;BME280_pressure;Samples;Min_cycle;Max_cycle;Signal;HPM_P1;HPM_P2
2023/08/23 00:00:10;;;;;;;9.25;6.82;;;;;;;22.12;100.00;94286.25;5067309;28;20036;-65
2023/08/23 00:02:37;;;;;;;12.13;6.70;;;;;;;22.09;100.00;94287.22;5051935;28;20087;-64
2023/08/23 00:05:04;;;;;;;10.90;7.72;;;;;;;22.11;100.00;94287.53;5059717;28;20049;-64
2023/08/23 00:07:31;;;;;;;14.80;8.05;;;;;;;22.04;100.00;94295.50;5069116;28;20053;-65
2023/08/23 00:09:57;;;;;;;11.35;6.90;;;;;;;22.05;100.00;94289.41;5068680;28;20059;-62
2023/08/23 00:12:24;;;;;;;11.85;6.88;;;;;;;22.03;100.00;94279.97;5069150;28;20063;-64
2023/08/23 00:14:51;;;;;;;9.90;6.50;;;;;;;21.98;100.00;94278.63;5069139;28;20045;-64
2023/08/23 00:17:18;;;;;;;10.70;6.72;;;;;;;21.89;100.00;94284.31;5068644;28;20511;-64
2023/08/23 00:19:46;;;;;;;9.75;6.95;;;;;;;21.89;100.00;94276.72;5068424;28;20045;-65
2023/08/23 00:22:13;;;;;;;10.27;6.97;;;;;;;21.65;100.00;94276.78;5068296;28;20044;-64
2023/08/23 00:24:39;;;;;;;10.45;6.78;;;;;;;21.67;100.00;94281.88;5068799;28;20045;-64
2023/08/23 00:27:06;;;;;;;9.70;6.60;;;;;;;21.78;100.00;94281.31;5068141;28;20391;-65
2023/08/23 00:29:33;;;;;;;9.48;6.50;;;;;;;21.78;100.00;94287.69;5069283;28;20041;-64
2023/08/23 00:32:00;;;;;;;8.88;6.72;;;;;;;21.75;100.00;94285.84;5068658;28;20056;-64
2023/08/23 00:34:26;;;;;;;10.30;6.68;;;;;;;21.71;100.00;94280.47;5068486;28;20041;-65
2023/08/23 00:36:53;;;;;;;9.80;6.88;;;;;;;21.73;100.00;94288.34;5069234;28;20053;-65
2023/08/23 00:39:20;;;;;;;10.40;7.43;;;;;;;21.35;100.00;94281.50;5067943;28;20044;-65
2023/08/23 00:41:47;;;;;;;12.15;7.22;;;;;;;21.27;100.00;94289.47;5067377;28;20044;-64
2023/08/23 00:44:13;;;;;;;11.10;7.25;;;;;;;21.30;100.00;94282.16;5068434;28;20040;-64
2023/08/23 00:46:40;;;;;;;23.15;16.90;;;;;;;21.33;100.00;94282.00;5068543;28;20037;-65
2023/08/23 00:49:07;;;;;;;17.38;13.48;;;;;;;21.37;100.00;94283.81;5068238;28;20147;-64
2023/08/23 00:51:35;;;;;;;11.63;8.67;;;;;;;21.38;100.00;94279.78;5068637;28;20044;-64
2023/08/23 00:54:02;;;;;;;10.15;6.90;;;;;;;21.38;100.00;94272.16;5067982;28;20051;-64
2023/08/23 00:56:30;;;;;;;8.88;7.00;;;;;;;21.35;100.00;94273.91;5068792;28;20044;-64
2023/08/23 00:58:58;;;;;;;9.40;6.75;;;;;;;21.31;100.00;94276.09;5068706;28;20452;-64
2023/08/23 01:01:25;;;;;;;9.63;6.85;;;;;;;21.20;100.00;94275.88;5037526;28;20178;-64
2023/08/23 01:03:57;;;;;;;9.10;7.10;;;;;;;21.13;100.00;94270.66;5029093;28;20053;-64
2023/08/23 01:06:59;;;;;;;19.30;7.38;;;;;;;21.10;100.00;94274.41;5043761;28;20829;-64
2023/08/23 01:09:39;;;;;;;10.82;6.75;;;;;;;21.09;100.00;94275.66;5008118;28;20055;-64
2023/08/23 01:12:18;;;;;;;10.02;7.25;;;;;;;20.57;100.00;94280.56;5047867;28;20054;-64
2023/08/23 01:14:57;;;;;;;10.60;7.50;;;;;;;20.37;100.00;94278.34;5042824;28;20059;-64
2023/08/23 01:17:24;;;;;;;11.17;7.50;;;;;;;20.50;100.00;94281.69;5042577;28;20405;-64
2023/08/23 01:19:53;;;;;;;9.52;6.97;;;;;;;20.59;100.00;94278.13;5047941;28;20041;-64
2023/08/23 01:22:21;;;;;;;11.77;7.65;;;;;;;20.69;100.00;94277.59;5030679;28;20049;-64
2023/08/23 01:24:51;;;;;;;10.23;7.35;;;;;;;20.75;100.00;94272.91;5048252;28;20369;-64
2023/08/23 01:27:18;;;;;;;10.43;7.30;;;;;;;20.77;100.00;94277.25;5047667;28;20463;-64
2023/08/23 01:29:46;;;;;;;10.87;7.40;;;;;;;20.79;100.00;94269.94;5035468;28;20045;-64
2023/08/23 01:32:30;;;;;;;10.40;7.60;;;;;;;20.81;100.00;94275.81;5048924;28;20624;-64
2023/08/23 01:35:11;;;;;;;9.43;7.13;;;;;;;20.82;100.00;94271.00;5040549;28;20047;-64
2023/08/23 01:37:40;;;;;;;10.05;7.30;;;;;;;20.78;100.00;94270.41;5070937;28;20667;-64
2023/08/23 01:40:09;;;;;;;11.25;7.03;;;;;;;20.78;100.00;94265.59;5071706;28;20037;-64
2023/08/23 01:42:38;;;;;;;9.47;7.60;;;;;;;20.77;100.00;94266.88;5071598;28;20048;-64
2023/08/23 01:45:07;;;;;;;11.02;7.82;;;;;;;20.76;100.00;94268.09;5071478;28;20032;-64
2023/08/23 01:47:34;;;;;;;12.80;7.20;;;;;;;20.79;100.00;94278.31;5071824;28;20063;-64
2023/08/23 01:50:00;;;;;;;10.70;7.28;;;;;;;20.77;100.00;94269.66;5058144;28;20044;-64
2023/08/23 01:52:27;;;;;;;10.40;7.18;;;;;;;20.64;100.00;94272.66;5070505;28;20040;-64
2023/08/23 01:54:54;;;;;;;10.97;7.20;;;;;;;20.65;100.00;94262.28;5071554;28;20063;-65
2023/08/23 01:57:21;;;;;;;9.52;6.60;;;;;;;20.67;100.00;94277.28;5071228;28;20041;-65
2023/08/23 01:59:49;;;;;;;10.60;6.60;;;;;;;20.66;100.00;94277.75;5071492;28;20360;-64
2023/08/23 02:02:16;;;;;;;8.25;6.43;;;;;;;20.58;100.00;94266.13;5054542;28;20052;-64
2023/08/23 02:04:43;;;;;;;10.02;6.70;;;;;;;20.62;100.00;94266.00;5059683;28;20036;-64
2023/08/23 02:07:10;;;;;;;11.90;7.20;;;;;;;20.60;100.00;94268.50;5071179;28;20058;-64
2023/08/23 02:09:36;;;;;;;9.75;6.95;;;;;;;20.55;100.00;94273.44;5071397;28;20389;-64
2023/08/23 02:12:03;;;;;;;9.82;6.47;;;;;;;20.55;100.00;94261.53;5056893;28;20055;-64
2023/08/23 02:14:30;;;;;;;10.60;6.80;;;;;;;20.50;100.00;94270.53;5057029;28;20512;-64
2023/08/23 02:16:56;;;;;;;11.05;7.00;;;;;;;20.27;100.00;94272.03;5071210;28;20111;-64
2023/08/23 02:19:23;;;;;;;10.27;6.87;;;;;;;20.17;100.00;94274.06;5070202;28;21323;-64
2023/08/23 02:21:51;;;;;;;10.95;7.28;;;;;;;20.07;100.00;94276.09;5071480;28;20098;-64
2023/08/23 02:24:17;;;;;;;9.93;7.40;;;;;;;19.91;100.00;94270.88;5069207;28;20054;-64
2023/08/23 02:26:44;;;;;;;10.80;7.45;;;;;;;19.86;100.00;94269.53;5071459;28;20048;-65
2023/08/23 02:29:11;;;;;;;10.32;7.40;;;;;;;19.93;100.00;94271.97;5070565;28;20037;-64
2023/08/23 02:31:38;;;;;;;9.87;7.03;;;;;;;20.02;100.00;94270.38;5071208;28;20048;-64
2023/08/23 02:34:04;;;;;;;10.50;7.20;;;;;;;20.04;100.00;94271.50;5070450;28;20443;-64
2023/08/23 02:36:31;;;;;;;27.02;20.45;;;;;;;20.08;100.00;94271.28;5071467;28;20118;-64
2023/08/23 02:38:58;;;;;;;18.55;12.52;;;;;;;20.08;100.00;94272.09;5070526;28;20412;-64
2023/08/23 02:41:25;;;;;;;14.18;9.85;;;;;;;20.09;100.00;94270.06;5070948;28;20043;-65
2023/08/23 02:43:51;;;;;;;13.73;8.10;;;;;;;20.11;100.00;94264.81;5070731;28;20042;-64
2023/08/23 02:46:18;;;;;;;10.90;7.88;;;;;;;20.09;100.00;94272.84;5070448;28;20052;-64
2023/08/23 02:48:45;;;;;;;11.25;7.70;;;;;;;19.96;100.00;94270.28;5070785;28;20048;-64
2023/08/23 02:51:12;;;;;;;11.13;7.82;;;;;;;19.86;100.00;94265.94;5069032;28;20041;-64
2023/08/23 02:53:38;;;;;;;9.98;7.28;;;;;;;19.85;100.00;94275.53;5069323;28;20044;-64
2023/08/23 02:56:05;;;;;;;10.47;7.10;;;;;;;19.85;100.00;94265.19;5070432;28;20412;-64
2023/08/23 02:58:32;;;;;;;11.85;7.80;;;;;;;19.85;100.00;94259.59;5070947;28;20466;-64
2023/08/23 03:01:00;;;;;;;11.00;7.47;;;;;;;19.72;100.00;94257.00;5063761;28;20047;-63
2023/08/23 03:03:27;;;;;;;10.20;7.45;;;;;;;19.52;100.00;94257.47;5051706;28;20401;-64
2023/08/23 03:05:56;;;;;;;11.30;8.15;;;;;;;19.51;100.00;94260.72;5068102;28;20052;-64
2023/08/23 03:08:24;;;;;;;12.30;8.37;;;;;;;19.60;100.00;94262.72;5049590;28;20287;-64
2023/08/23 03:10:51;;;;;;;10.90;7.95;;;;;;;19.67;100.00;94263.16;5047088;28;20034;-64
2023/08/23 03:13:18;;;;;;;12.48;8.13;;;;;;;19.72;100.00;94270.16;5048771;28;20053;-64
2023/08/23 03:15:52;;;;;;;11.80;8.13;;;;;;;19.77;100.00;94275.09;5050019;28;20037;-64
2023/08/23 03:18:19;;;;;;;11.15;8.13;;;;;;;19.78;100.00;94275.84;5054001;28;20049;-64
2023/08/23 03:20:46;;;;;;;12.43;8.00;;;;;;;19.70;100.00;94276.16;5050176;28;20045;-64
2023/08/23 03:23:12;;;;;;;11.18;7.80;;;;;;;19.67;100.00;94276.31;5049893;28;20069;-64
2023/08/23 03:25:39;;;;;;;11.07;7.68;;;;;;;19.67;100.00;94268.72;5049699;28;20044;-64
2023/08/23 03:28:06;;;;;;;11.98;7.70;;;;;;;19.68;100.00;94278.66;5048267;28;20041;-64
2023/08/23 03:30:32;;;;;;;10.20;7.93;;;;;;;19.64;100.00;94272.47;5049670;28;20047;-64
2023/08/23 03:32:59;;;;;;;11.47;8.03;;;;;;;19.61;100.00;94267.81;5049508;28;20086;-63
2023/08/23 03:35:29;;;;;;;13.15;8.35;;;;;;;19.60;100.00;94266.28;5049897;28;20049;-66
2023/08/23 03:37:55;;;;;;;11.52;7.90;;;;;;;19.58;100.00;94260.41;5048317;28;20072;-64
2023/08/23 03:40:22;;;;;;;11.70;7.90;;;;;;;19.53;100.00;94261.78;5049064;28;20592;-64
2023/08/23 03:42:49;;;;;;;11.50;8.00;;;;;;;19.55;100.00;94256.53;5049603;28;20447;-64
2023/08/23 03:45:17;;;;;;;10.80;7.43;;;;;;;19.56;100.00;94251.75;5048961;28;20045;-64
2023/08/23 03:47:44;;;;;;;12.00;7.82;;;;;;;19.50;100.00;94248.06;5049381;28;20057;-64
2023/08/23 03:50:12;;;;;;;11.00;7.47;;;;;;;19.53;100.00;94258.25;5048520;28;20122;-64
2023/08/23 03:52:38;;;;;;;10.13;7.10;;;;;;;19.32;100.00;94248.84;5049284;28;20086;-64
2023/08/23 03:55:05;;;;;;;12.30;7.60;;;;;;;19.36;100.00;94261.34;5048196;28;20059;-64
2023/08/23 03:57:32;;;;;;;11.30;7.80;;;;;;;19.25;100.00;94249.91;5049313;28;20065;-65
2023/08/23 03:59:59;;;;;;;10.93;8.15;;;;;;;19.31;100.00;94253.59;5047761;28;20040;-64
2023/08/23 04:02:26;;;;;;;12.35;7.70;;;;;;;19.15;100.00;94254.69;5031637;28;20045;-64
2023/08/23 04:04:52;;;;;;;14.85;8.52;;;;;;;19.24;100.00;94265.06;5038411;28;20114;-65
2023/08/23 04:07:19;;;;;;;16.65;10.13;;;;;;;19.23;100.00;94263.50;5043895;28;20041;-64
2023/08/23 04:09:46;;;;;;;12.63;7.97;;;;;;;19.26;100.00;94267.38;5047500;28;20055;-64
2023/08/23 04:12:12;;;;;;;14.48;9.57;;;;;;;19.27;100.00;94266.91;5048672;28;20130;-64
2023/08/23 04:14:39;;;;;;;13.13;8.40;;;;;;;19.31;100.00;94269.53;5049195;28;20053;-64
2023/08/23 04:17:06;;;;;;;10.70;7.75;;;;;;;19.27;100.00;94275.25;5049718;28;20049;-64
2023/08/23 04:19:33;;;;;;;10.88;7.50;;;;;;;19.30;100.00;94279.13;5048965;28;20052;-64
2023/08/23 04:21:59;;;;;;;11.30;7.53;;;;;;;19.32;100.00;94280.22;5068832;28;20053;-64
2023/08/23 04:24:26;;;;;;;11.85;8.00;;;;;;;19.35;100.00;94273.69;5068594;28;20046;-64
2023/08/23 04:26:53;;;;;;;11.70;7.63;;;;;;;19.34;100.00;94279.75;5068858;28;20051;-64
2023/08/23 04:29:20;;;;;;;10.90;7.75;;;;;;;19.23;100.00;94274.63;5067962;28;20049;-64
2023/08/23 04:31:46;;;;;;;11.73;7.68;;;;;;;19.23;100.00;94271.84;5068564;28;20049;-64
2023/08/23 04:34:13;;;;;;;10.90;7.60;;;;;;;19.13;100.00;94276.63;5068220;28;20151;-64
2023/08/23 04:36:40;;;;;;;10.13;7.15;;;;;;;19.05;100.00;94283.75;5068970;28;20159;-64
2023/08/23 04:39:06;;;;;;;9.32;7.38;;;;;;;19.05;100.00;94289.31;5067630;28;20049;-64
2023/08/23 04:41:33;;;;;;;11.93;7.65;;;;;;;19.09;100.00;94270.44;5068697;28;20394;-64
2023/08/23 04:44:00;;;;;;;11.57;7.57;;;;;;;19.18;100.00;94282.84;5066986;28;20044;-64
2023/08/23 04:46:27;;;;;;;10.87;7.30;;;;;;;19.21;100.00;94276.34;5068126;28;20040;-64
2023/08/23 04:48:53;;;;;;;14.32;8.77;;;;;;;19.28;100.00;94279.59;5056413;28;20049;-64
2023/08/23 04:51:22;;;;;;;13.02;8.77;;;;;;;19.33;100.00;94272.63;5064130;28;20045;-64
2023/08/23 04:53:49;;;;;;;11.80;8.30;;;;;;;19.35;100.00;94268.13;5068445;28;20048;-64
2023/08/23 04:56:16;;;;;;;9.90;7.22;;;;;;;19.40;100.00;94272.34;5049718;28;20040;-64
2023/08/23 04:58:42;;;;;;;11.30;8.00;;;;;;;19.31;100.00;94273.09;5067296;28;20434;-64
2023/08/23 05:01:09;;;;;;;11.40;7.32;;;;;;;19.14;100.00;94280.97;5067770;28;20037;-64
2023/08/23 05:03:36;;;;;;;12.07;7.95;;;;;;;18.91;100.00;94276.00;5068520;28;20037;-64
2023/08/23 05:06:03;;;;;;;11.35;7.30;;;;;;;19.00;100.00;94281.59;5067532;28;20155;-65
2023/08/23 05:08:33;;;;;;;11.10;7.60;;;;;;;19.15;100.00;94279.72;5066249;28;20059;-64
2023/08/23 05:11:00;;;;;;;11.80;7.73;;;;;;;19.35;100.00;94279.28;5067738;28;20036;-65
2023/08/23 05:13:26;;;;;;;12.60;7.70;;;;;;;19.55;100.00;94281.56;5068376;28;20097;-65
2023/08/23 05:15:57;;;;;;;10.85;8.18;;;;;;;19.70;100.00;94275.41;5068401;28;20047;-65
2023/08/23 05:18:24;;;;;;;10.52;7.68;;;;;;;19.84;100.00;94274.78;5067295;28;20834;-65
2023/08/23 05:20:59;;;;;;;11.38;8.05;;;;;;;19.96;100.00;94273.06;5061105;28;20052;-64
2023/08/23 05:23:26;;;;;;;11.87;8.20;;;;;;;20.03;100.00;94269.16;5047404;28;20566;-64
2023/08/23 05:25:53;;;;;;;13.20;8.05;;;;;;;20.16;100.00;94264.16;5066555;28;20400;-65
2023/08/23 05:28:21;;;;;;;11.60;8.35;;;;;;;20.34;100.00;94280.03;5067541;28;20041;-65
2023/08/23 05:30:52;;;;;;;11.85;8.50;;;;;;;20.33;100.00;94281.28;5068021;28;20054;-65
2023/08/23 05:33:18;;;;;;;13.93;8.30;;;;;;;20.22;100.00;94281.81;5068058;28;20040;-65
2023/08/23 05:35:45;;;;;;;13.73;8.73;;;;;;;20.01;100.00;94283.56;5066255;28;20066;-64
2023/08/23 05:38:12;;;;;;;10.30;8.35;;;;;;;20.09;100.00;94281.22;5067158;28;20055;-64
2023/08/23 05:40:39;;;;;;;10.65;7.90;;;;;;;20.31;100.00;94284.53;5067819;28;20424;-64
2023/08/23 05:43:06;;;;;;;12.85;8.05;;;;;;;20.47;100.00;94280.59;5066125;28;20444;-67
2023/08/23 05:45:33;;;;;;;12.50;8.45;;;;;;;20.71;100.00;94285.50;5067452;28;20462;-64
2023/08/23 05:48:00;;;;;;;12.57;8.70;;;;;;;20.75;100.00;94283.31;5067278;28;20040;-64
2023/08/23 05:50:27;;;;;;;11.25;8.23;;;;;;;21.03;100.00;94277.56;5067392;28;20054;-65
2023/08/23 05:52:54;;;;;;;10.30;7.85;;;;;;;21.21;100.00;94276.63;5067725;28;20078;-64
2023/08/23 05:55:21;;;;;;;10.30;7.82;;;;;;;21.41;100.00;94270.44;5066878;28;20057;-64
2023/08/23 05:57:48;;;;;;;12.48;8.30;;;;;;;21.31;100.00;94269.75;5067773;28;20041;-64
2023/08/23 06:00:15;;;;;;;11.57;7.90;;;;;;;21.38;100.00;94277.75;5064961;28;20045;-64
2023/08/23 06:02:43;;;;;;;12.95;8.30;;;;;;;21.45;100.00;94280.22;5036476;28;20237;-64
2023/08/23 06:05:13;;;;;;;10.80;8.00;;;;;;;21.66;100.00;94281.13;5038918;28;20098;-64
2023/08/23 06:07:41;;;;;;;11.88;8.23;;;;;;;21.48;100.00;94279.25;5047607;28;20048;-64
2023/08/23 06:10:09;;;;;;;12.00;8.02;;;;;;;21.29;100.00;94286.22;5047343;28;20051;-64
2023/08/23 06:12:36;;;;;;;12.33;8.27;;;;;;;21.03;100.00;94292.28;5052896;28;20045;-64
2023/08/23 06:15:04;;;;;;;10.40;8.10;;;;;;;21.28;100.00;94293.78;5066991;28;20051;-64
2023/08/23 06:17:32;;;;;;;11.88;8.52;;;;;;;21.42;100.00;94285.94;5068317;28;20037;-64
2023/08/23 06:19:59;;;;;;;11.52;8.45;;;;;;;21.79;100.00;94283.63;5070301;28;20044;-64
2023/08/23 06:22:25;;;;;;;10.60;8.13;;;;;;;22.00;100.00;94287.31;5071357;28;20044;-64
2023/08/23 06:24:52;;;;;;;12.50;8.40;;;;;;;22.34;100.00;94285.88;5071310;28;20051;-64
2023/08/23 06:27:19;;;;;;;12.95;7.97;;;;;;;22.89;100.00;94273.22;5070699;28;20055;-64
2023/08/23 06:29:46;;;;;;;11.65;7.68;;;;;;;25.35;100.00;94271.72;5071272;28;20051;-65
2023/08/23 06:32:12;;;;;;;9.50;7.20;;;;;;;27.46;100.00;94270.03;5070681;28;20089;-65
2023/08/23 06:34:39;;;;;;;10.45;7.82;;;;;;;28.86;100.00;94275.34;5071379;28;20053;-65
2023/08/23 06:37:07;;;;;;;10.23;7.30;;;;;;;29.92;94.11;94272.63;5070497;28;20391;-65
2023/08/23 06:39:34;;;;;;;8.98;6.95;;;;;;;29.68;91.08;94268.53;5071201;28;20055;-66
2023/08/23 06:42:01;;;;;;;8.57;6.90;;;;;;;29.34;95.61;94278.72;5061704;28;20041;-65
2023/08/23 06:44:29;;;;;;;10.70;6.80;;;;;;;29.82;91.87;94268.63;5064266;28;20053;-65
2023/08/23 06:46:56;;;;;;;9.80;7.10;;;;;;;31.60;81.89;94270.41;5070770;28;20094;-65
2023/08/23 06:49:23;;;;;;;8.20;6.60;;;;;;;33.00;74.53;94265.69;5070221;28;20368;-65
2023/08/23 06:51:50;;;;;;;10.85;6.60;;;;;;;32.75;72.99;94271.75;5042191;28;20106;-66
2023/08/23 06:54:16;;;;;;;8.60;6.80;;;;;;;32.29;74.96;94276.94;5050604;28;20049;-66
2023/08/23 06:56:45;;;;;;;8.32;6.50;;;;;;;32.57;72.82;94272.72;5032128;28;20072;-66
2023/08/23 06:59:12;;;;;;;9.70;6.20;;;;;;;31.00;80.84;94272.53;5043228;28;20493;-65
2023/08/23 07:01:39;;;;;;;7.60;6.40;;;;;;;31.41;80.67;94270.47;5038439;28;20056;-65
2023/08/23 07:04:06;;;;;;;9.45;7.00;;;;;;;30.97;80.88;94272.84;5033291;28;21214;-65
2023/08/23 07:06:33;;;;;;;8.43;6.72;;;;;;;31.92;78.76;94275.19;5048820;28;20401;-65
2023/08/23 07:08:59;;;;;;;8.60;7.20;;;;;;;33.71;68.03;94262.81;5049612;28;20055;-65
2023/08/23 07:11:26;;;;;;;10.45;7.45;;;;;;;32.59;71.65;94270.09;5050725;28;20037;-66
2023/08/23 07:13:53;;;;;;;8.03;6.00;;;;;;;35.52;62.32;94274.97;5050128;28;20067;-65
2023/08/23 07:16:19;;;;;;;9.88;5.78;;;;;;;36.90;53.72;94274.38;5049768;28;20041;-66
2023/08/23 07:18:46;;;;;;;10.30;6.38;;;;;;;36.96;52.69;94268.44;5050040;28;20036;-64
2023/08/23 07:21:14;;;;;;;12.52;7.03;;;;;;;34.84;54.59;94265.84;5049673;28;20079;-66
2023/08/23 07:23:41;;;;;;;8.40;5.95;;;;;;;34.46;58.67;94268.59;5050068;28;20098;-66
2023/08/23 07:26:09;;;;;;;8.17;5.73;;;;;;;33.56;64.74;94272.72;5066795;28;20039;-66
2023/08/23 07:28:36;;;;;;;7.72;5.55;;;;;;;34.17;59.48;94268.72;5069993;28;20052;-65
2023/08/23 07:31:03;;;;;;;8.05;5.85;;;;;;;36.61;52.10;94261.81;5069338;28;20257;-66
2023/08/23 07:33:30;;;;;;;6.97;5.47;;;;;;;37.36;49.31;94267.56;5070231;28;20397;-66
2023/08/23 07:35:58;;;;;;;8.18;5.82;;;;;;;34.32;55.84;94265.91;5070280;28;20044;-65
2023/08/23 07:38:26;;;;;;;8.57;5.67;;;;;;;34.38;56.22;94263.63;5048917;28;20620;-65
2023/08/23 07:41:01;;;;;;;7.20;5.20;;;;;;;33.33;58.22;94263.31;5050139;28;20049;-65
2023/08/23 07:43:27;;;;;;;7.50;5.40;;;;;;;34.51;55.31;94265.59;5040846;28;20818;-65
2023/08/23 07:46:00;;;;;;;8.65;6.03;;;;;;;33.79;57.78;94270.06;5062230;28;20113;-65
2023/08/23 07:48:27;;;;;;;9.35;5.90;;;;;;;31.69;67.17;94260.69;5068258;28;20113;-65
2023/08/23 07:51:00;;;;;;;7.67;5.50;;;;;;;33.33;60.81;94257.63;5069474;28;20098;-65
2023/08/23 07:53:29;;;;;;;7.35;5.30;;;;;;;34.73;54.63;94266.19;5035414;28;20102;-65
2023/08/23 07:55:56;;;;;;;10.10;6.10;;;;;;;36.31;51.23;94257.78;5049794;28;20055;-65
2023/08/23 07:58:22;;;;;;;8.40;5.25;;;;;;;38.48;45.41;94261.72;5055556;28;21087;-66
2023/08/23 08:00:51;;;;;;;9.50;5.30;;;;;;;40.05;40.45;94260.91;5049324;28;20045;-66
2023/08/23 08:03:18;;;;;;;9.93;5.20;;;;;;;37.59;43.15;94264.50;5049046;28;20057;-66
2023/08/23 08:05:45;;;;;;;7.28;5.00;;;;;;;38.38;43.21;94257.31;5049314;28;20051;-66
2023/08/23 08:08:12;;;;;;;7.78;5.65;;;;;;;38.00;41.19;94262.13;5048895;28;20068;-66
2023/08/23 08:10:39;;;;;;;7.57;4.93;;;;;;;38.79;42.06;94266.28;5049223;28;20055;-66
2023/08/23 08:13:06;;;;;;;7.78;4.95;;;;;;;38.51;39.51;94254.81;5046961;28;20061;-66
2023/08/23 08:15:33;;;;;;;8.07;4.80;;;;;;;38.41;41.73;94259.72;5036516;28;20513;-66
2023/08/23 08:17:59;;;;;;;7.03;4.97;;;;;;;36.92;44.98;94256.63;5047239;28;20043;-66
2023/08/23 08:20:26;;;;;;;6.47;4.78;;;;;;;38.84;40.55;94248.81;5049076;28;20053;-66
2023/08/23 08:22:53;;;;;;;7.15;4.65;;;;;;;39.77;39.19;94258.75;5048954;28;20044;-66
2023/08/23 08:25:20;;;;;;;7.70;4.63;;;;;;;41.18;35.35;94251.00;5056690;28;20041;-66
2023/08/23 08:27:47;;;;;;;5.67;4.30;;;;;;;39.70;37.17;94258.31;5058247;28;20052;-66
2023/08/23 08:30:15;;;;;;;6.75;4.30;;;;;;;41.78;34.41;94252.94;5068117;28;20420;-66
2023/08/23 08:32:43;;;;;;;8.18;4.75;;;;;;;41.62;34.24;94249.72;5068596;28;20071;-65
2023/08/23 08:35:10;;;;;;;6.63;4.25;;;;;;;43.02;31.75;94248.72;5068509;28;20043;-66
2023/08/23 08:37:37;;;;;;;6.70;4.30;;;;;;;40.41;33.99;94252.69;5068406;28;20051;-66
2023/08/23 08:40:04;;;;;;;6.20;4.23;;;;;;;39.97;35.57;94245.94;5066332;28;20044;-66
2023/08/23 08:42:32;;;;;;;6.20;4.15;;;;;;;41.56;32.91;94241.38;5068672;28;20036;-66
2023/08/23 08:44:59;;;;;;;6.15;3.90;;;;;;;43.06;31.67;94240.31;5068282;28;20048;-66
2023/08/23 08:47:26;;;;;;;8.02;3.92;;;;;;;42.82;30.76;94245.31;5068347;28;20102;-66
2023/08/23 08:49:53;;;;;;;5.47;4.07;;;;;;;43.14;29.99;94242.94;5067331;28;20037;-66
2023/08/23 08:52:22;;;;;;;9.03;4.10;;;;;;;41.39;31.17;94244.50;5054705;28;20051;-67
2023/08/23 08:54:51;;;;;;;6.90;4.00;;;;;;;41.32;32.13;94234.69;5068615;28;20059;-66
2023/08/23 08:57:19;;;;;;;5.88;4.00;;;;;;;43.05;29.63;94230.16;5068212;28;20436;-66
2023/08/23 08:59:47;;;;;;;6.60;4.10;;;;;;;39.91;33.62;94239.75;5068422;28;20044;-66
2023/08/23 09:02:17;;;;;;;5.38;4.20;;;;;;;42.62;30.78;94236.13;5049675;28;20032;-66
2023/08/23 09:04:47;;;;;;;7.43;4.33;;;;;;;40.77;31.83;94237.38;5068606;28;20039;-66
2023/08/23 09:07:15;;;;;;;4.97;4.40;;;;;;;40.65;32.10;94242.19;5067942;28;20039;-66
2023/08/23 09:09:45;;;;;;;7.30;5.07;;;;;;;39.96;33.49;94240.78;5068296;28;20044;-66
2023/08/23 09:12:13;;;;;;;8.02;4.43;;;;;;;42.42;31.28;94246.31;5067829;28;20037;-66
2023/08/23 09:14:40;;;;;;;6.32;4.60;;;;;;;39.75;34.29;94248.63;5054913;28;20051;-66
2023/08/23 09:17:10;;;;;;;6.60;4.73;;;;;;;39.18;35.16;94249.25;5054698;28;20674;-66
2023/08/23 09:19:40;;;;;;;6.93;5.18;;;;;;;40.25;33.31;94244.41;5068137;28;20048;-66
2023/08/23 09:22:07;;;;;;;8.15;4.50;;;;;;;40.70;33.63;94238.25;5067881;28;20047;-66
2023/08/23 09:24:33;;;;;;;6.60;4.65;;;;;;;37.80;36.83;94243.28;5068061;28;20101;-66
2023/08/23 09:27:01;;;;;;;5.65;4.80;;;;;;;37.53;38.09;94238.94;5066493;28;20036;-66
2023/08/23 09:29:28;;;;;;;6.47;5.10;;;;;;;36.25;42.44;94245.81;5064339;28;20044;-65
2023/08/23 09:31:58;;;;;;;7.32;5.47;;;;;;;36.26;42.70;94233.03;5048122;28;20064;-66
2023/08/23 09:34:25;;;;;;;6.80;5.50;;;;;;;35.68;43.26;94241.44;5062390;28;20413;-66
2023/08/23 09:36:51;;;;;;;7.97;5.57;;;;;;;36.73;42.90;94240.75;5056304;28;20062;-65
2023/08/23 09:39:19;;;;;;;6.45;5.50;;;;;;;36.84;42.29;94235.91;5067004;28;20067;-65
2023/08/23 09:41:46;;;;;;;8.93;5.17;;;;;;;37.49;43.39;94235.75;5068399;28;20036;-66
2023/08/23 09:44:40;;;;;;;6.38;5.45;;;;;;;35.05;46.66;94227.81;5067017;28;20539;-65
2023/08/23 09:47:15;;;;;;;7.70;5.40;;;;;;;35.16;46.22;94238.88;5067781;28;20400;-65
2023/08/23 09:49:44;;;;;;;10.32;5.47;;;;;;;35.49;46.30;94224.72;5067679;28;20048;-65
2023/08/23 09:52:12;;;;;;;6.95;5.60;;;;;;;33.54;51.54;94237.63;5067977;28;20060;-65
2023/08/23 09:54:41;;;;;;;8.63;5.90;;;;;;;35.06;49.58;94226.50;5071633;28;20048;-66
2023/08/23 09:57:23;;;;;;;8.45;5.63;;;;;;;36.16;45.75;94212.88;5071771;28;20036;-66
2023/08/23 09:59:51;;;;;;;8.60;5.82;;;;;;;35.27;48.62;94218.47;5071730;28;20071;-66
2023/08/23 10:02:18;;;;;;;8.25;5.43;;;;;;;36.22;45.88;94215.53;5070931;28;20048;-66
2023/08/23 10:04:45;;;;;;;7.28;5.50;;;;;;;36.50;45.31;94212.31;5071255;28;20032;-65
2023/08/23 10:07:13;;;;;;;9.90;5.33;;;;;;;38.19;41.39;94203.47;5071337;28;20127;-66
2023/08/23 10:09:40;;;;;;;9.65;5.30;;;;;;;37.22;43.04;94209.88;5070973;28;20032;-66
2023/08/23 10:12:11;;;;;;;9.40;5.63;;;;;;;35.51;46.82;94207.78;5070545;28;20051;-66
2023/08/23 10:14:43;;;;;;;7.32;5.70;;;;;;;35.25;47.91;94206.88;5069819;28;20052;-65
2023/08/23 10:17:15;;;;;;;7.35;5.47;;;;;;;38.00;42.55;94201.97;5070302;28;20040;-66
2023/08/23 10:19:41;;;;;;;6.63;5.30;;;;;;;36.02;46.73;94195.25;5070747;28;20047;-65
2023/08/23 10:22:08;;;;;;;6.88;5.30;;;;;;;37.95;41.63;94200.88;5070859;28;20494;-66
2023/08/23 10:24:35;;;;;;;6.32;5.25;;;;;;;37.42;42.94;94204.34;5070837;28;20090;-65
2023/08/23 10:27:07;;;;;;;6.90;5.50;;;;;;;37.06;43.08;94197.03;5070532;28;20420;-65
2023/08/23 10:29:37;;;;;;;9.18;5.97;;;;;;;36.08;45.17;94197.84;5070915;28;20047;-65
2023/08/23 10:32:07;;;;;;;7.50;5.53;;;;;;;36.28;44.83;94193.19;5070825;28;20532;-66
2023/08/23 10:34:35;;;;;;;6.63;5.20;;;;;;;38.58;40.96;94207.34;5070778;28;20040;-65
2023/08/23 10:37:20;;;;;;;8.45;5.68;;;;;;;38.49;39.78;94205.88;5070627;28;20048;-66
2023/08/23 10:39:49;;;;;;;6.75;5.60;;;;;;;37.10;42.05;94203.84;5071014;28;20036;-66
2023/08/23 10:42:20;;;;;;;7.55;5.90;;;;;;;36.48;43.44;94205.66;5069964;28;20055;-66
2023/08/23 10:44:54;;;;;;;7.50;5.80;;;;;;;37.48;42.25;94213.44;5071150;28;20101;-66
2023/08/23 10:47:22;;;;;;;7.75;6.00;;;;;;;34.27;47.30;94211.94;5070353;28;20055;-66
2023/08/23 10:49:50;;;;;;;6.90;6.07;;;;;;;31.33;62.86;94210.84;5070922;28;20189;-65
2023/08/23 10:52:17;;;;;;;10.35;6.47;;;;;;;31.43;66.15;94203.41;5068228;28;20066;-65
2023/08/23 10:54:44;;;;;;;7.82;6.40;;;;;;;30.61;71.19;94203.13;5070763;28;20036;-65
2023/08/23 10:57:11;;;;;;;8.70;6.47;;;;;;;32.81;64.39;94200.56;5070431;28;20537;-65
2023/08/23 10:59:38;;;;;;;7.13;6.13;;;;;;;33.39;61.28;94201.34;5069575;28;20056;-65
2023/08/23 11:02:06;;;;;;;8.18;5.88;;;;;;;35.06;55.17;94195.88;5070186;28;20432;-65
2023/08/23 11:04:34;;;;;;;8.88;5.82;;;;;;;34.59;54.86;94185.78;5060434;28;20049;-65
2023/08/23 11:07:01;;;;;;;10.60;6.25;;;;;;;36.48;47.35;94192.09;5031193;28;20049;-65
2023/08/23 11:09:28;;;;;;;9.33;5.70;;;;;;;36.02;48.61;94186.66;5045447;28;20039;-66
2023/08/23 11:11:54;;;;;;;7.82;5.60;;;;;;;36.55;47.19;94182.72;5050377;28;20048;-65
2023/08/23 11:14:21;;;;;;;9.07;6.05;;;;;;;36.49;46.85;94193.63;5050383;28;20045;-65
2023/08/23 11:16:48;;;;;;;9.38;6.00;;;;;;;36.08;48.70;94186.44;5050573;28;20053;-65
2023/08/23 11:19:15;;;;;;;8.65;5.88;;;;;;;35.93;48.24;94181.56;5063720;28;20054;-65
2023/08/23 11:21:42;;;;;;;10.57;5.83;;;;;;;36.03;46.79;94178.84;5070472;28;20059;-66
2023/08/23 11:24:08;;;;;;;7.95;5.75;;;;;;;36.13;45.97;94189.06;5069550;28;20045;-65
2023/08/23 11:26:36;;;;;;;7.90;5.32;;;;;;;36.34;46.06;94188.78;5064467;28;20045;-65